This is the latest recevied weather packets stored in our database for station/object WR7DW-3. If no packets are shown the sender has not sent any weather packets the latest 1 day(s).
| Time | Temp. | Humidity | Pressure | Rain* | Wind** | Luminosity | Snow |
|---|---|---|---|---|---|---|---|
| 1778046277 | -1.67° C | 68% | 1012.7 hPa | 0 mm | - | - | - |
| 1778045377 | -1.67° C | 67% | 1012.8 hPa | 0 mm | - | - | - |
| 1778044477 | -1.67° C | 68% | 1012.8 hPa | 0 mm | - | - | - |
| 1778043577 | -1.67° C | 71% | 1012.8 hPa | 0 mm | - | - | - |
| 1778042677 | -2.22° C | 73% | 1012.8 hPa | 0 mm | - | - | - |
| 1778040877 | -2.22° C | 72% | 1012.7 hPa | 0 mm | - | - | - |
| 1778035478 | -1.11° C | 71% | 1012.1 hPa | 0 mm | - | - | - |
| 1778034578 | -0.56° C | 71% | 1011.9 hPa | 0 mm | - | - | - |
| 1778033678 | -0.56° C | 70% | 1011.8 hPa | 0 mm | - | - | - |
| 1778032778 | -0.56° C | 70% | 1011.8 hPa | 0 mm | - | - | - |
| 1778031878 | 0° C | 68% | 1011.6 hPa | 0 mm | - | - | - |
| 1778030978 | 0.56° C | 66% | 1011.5 hPa | 0 mm | - | - | - |
| 1778030078 | 1.11° C | 64% | 1011.8 hPa | 0 mm | - | - | - |
| 1778029178 | 1.67° C | 62% | 1011.4 hPa | 0 mm | - | - | - |
| 1778028278 | 3.33° C | 57% | 1011.5 hPa | 0 mm | - | - | - |
| 1778027378 | 2.78° C | 59% | 1011.7 hPa | 0 mm | - | - | - |
| 1778026478 | 1.67° C | 59% | 1011.9 hPa | 0 mm | - | - | - |
| 1778024678 | 2.22° C | 56% | 1012 hPa | 0 mm | - | - | - |
| 1778023778 | 2.78° C | 56% | 1012.1 hPa | 0 mm | - | - | - |
| 1778022878 | 3.89° C | 56% | 1012.3 hPa | 0 mm | - | - | - |
| 1778004879 | 1.11° C | 63% | 1012 hPa | 0 mm | - | - | - |
* Rain latest hour (hover to see other rain measurements)
** Current wind speed in m/s (hover to see current wind gust speed)